createdAt,value
2022-12-29T00:03:43.401Z,983
2022-12-29T00:09:43.145Z,983
2022-12-29T00:15:43.169Z,983
2022-12-29T00:21:43.143Z,983
2022-12-29T00:27:43.144Z,982
2022-12-29T00:33:43.169Z,982
2022-12-29T00:39:43.227Z,982
2022-12-29T00:45:43.119Z,982
2022-12-29T00:51:53.442Z,982
2022-12-29T00:57:43.107Z,982
2022-12-29T01:03:43.136Z,982
2022-12-29T01:09:43.167Z,982
2022-12-29T01:15:43.146Z,982
2022-12-29T01:21:43.118Z,982
2022-12-29T01:27:43.129Z,982
2022-12-29T01:33:43.117Z,982
2022-12-29T01:39:43.141Z,982
2022-12-29T01:45:43.219Z,982
2022-12-29T01:51:43.104Z,982
2022-12-29T01:57:43.133Z,982
2022-12-29T02:03:43.258Z,982
2022-12-29T02:09:43.140Z,982
2022-12-29T02:15:43.107Z,982
2022-12-29T02:21:43.149Z,982
2022-12-29T02:27:43.149Z,982
2022-12-29T02:33:43.128Z,981
2022-12-29T02:39:43.154Z,982
2022-12-29T02:45:43.179Z,982
2022-12-29T02:51:43.129Z,982
2022-12-29T02:57:43.148Z,982
2022-12-29T03:03:43.125Z,981
2022-12-29T03:09:43.131Z,982
2022-12-29T03:15:43.159Z,981
2022-12-29T03:21:43.148Z,981
2022-12-29T03:27:43.102Z,981
2022-12-29T03:33:43.141Z,981
2022-12-29T03:39:43.150Z,981
2022-12-29T03:45:43.225Z,981
2022-12-29T03:51:43.151Z,981
2022-12-29T03:57:43.113Z,981
2022-12-29T04:03:43.146Z,981
2022-12-29T04:09:43.121Z,981
2022-12-29T04:15:43.207Z,981
2022-12-29T04:21:43.141Z,981
2022-12-29T04:27:43.153Z,981
2022-12-29T04:33:43.116Z,981
2022-12-29T04:39:53.414Z,981
2022-12-29T04:45:43.157Z,981
2022-12-29T04:51:43.149Z,981
2022-12-29T04:57:43.164Z,981
2022-12-29T05:03:43.226Z,981
2022-12-29T05:09:43.247Z,981
2022-12-29T05:15:43.139Z,981
2022-12-29T05:21:43.152Z,981
2022-12-29T05:27:43.131Z,981
2022-12-29T05:33:43.102Z,981
2022-12-29T05:39:43.127Z,981
2022-12-29T05:45:43.112Z,981
2022-12-29T05:51:43.098Z,981
2022-12-29T05:57:43.140Z,981
2022-12-29T06:03:48.179Z,981
2022-12-29T06:09:43.123Z,982
2022-12-29T06:15:43.168Z,981
2022-12-29T06:21:43.210Z,982
2022-12-29T06:27:43.104Z,982
2022-12-29T06:33:46.101Z,981
2022-12-29T06:39:43.106Z,982
2022-12-29T06:45:43.163Z,981
2022-12-29T06:51:43.135Z,981
2022-12-29T06:57:43.099Z,981
2022-12-29T07:03:58.262Z,982
2022-12-29T07:09:43.134Z,982
2022-12-29T07:15:43.082Z,982
2022-12-29T07:21:44.113Z,982
2022-12-29T07:27:43.142Z,982
2022-12-29T07:33:43.136Z,982
2022-12-29T07:39:43.125Z,982
2022-12-29T07:45:43.144Z,982
2022-12-29T07:51:43.116Z,982
2022-12-29T07:57:43.116Z,982
2022-12-29T08:03:46.792Z,982
2022-12-29T08:09:43.089Z,982
2022-12-29T08:15:43.166Z,983
2022-12-29T08:21:43.134Z,983
2022-12-29T08:27:43.076Z,983
2022-12-29T08:33:43.105Z,983
2022-12-29T08:39:43.115Z,983
2022-12-29T08:45:43.100Z,983
2022-12-29T08:51:43.254Z,983
2022-12-29T08:57:43.098Z,983
2022-12-29T09:04:13.362Z,983
2022-12-29T09:09:43.178Z,983
2022-12-29T09:15:43.199Z,983
2022-12-29T09:21:43.129Z,983
2022-12-29T09:27:43.116Z,983
2022-12-29T09:33:43.279Z,983
2022-12-29T09:39:43.619Z,983
2022-12-29T09:45:43.117Z,984
2022-12-29T09:51:43.144Z,984
2022-12-29T09:57:43.104Z,984
2022-12-29T10:03:43.108Z,984
2022-12-29T10:09:43.143Z,984
2022-12-29T10:15:43.103Z,984
2022-12-29T10:21:43.096Z,984
2022-12-29T10:27:43.136Z,984
2022-12-29T10:33:43.112Z,984
2022-12-29T10:39:43.093Z,984
2022-12-29T10:45:43.238Z,984
2022-12-29T10:51:43.108Z,984
2022-12-29T10:57:43.081Z,984
2022-12-29T11:03:43.085Z,984
2022-12-29T11:09:43.576Z,984
2022-12-29T11:15:43.123Z,984
2022-12-29T11:21:43.422Z,984
2022-12-29T11:27:43.134Z,984
2022-12-29T11:33:43.072Z,984
2022-12-29T11:39:43.138Z,984
2022-12-29T11:45:43.233Z,984
2022-12-29T11:51:43.085Z,984
2022-12-29T11:57:43.095Z,984
2022-12-29T12:03:43.223Z,984
2022-12-29T12:09:43.103Z,984
2022-12-29T12:15:46.731Z,984
2022-12-29T12:21:45.828Z,984
2022-12-29T12:27:43.109Z,984
2022-12-29T12:33:43.114Z,984
2022-12-29T12:39:43.146Z,984
2022-12-29T12:45:43.105Z,984
2022-12-29T12:51:43.081Z,984
2022-12-29T12:57:43.143Z,984
2022-12-29T13:03:43.146Z,984
2022-12-29T13:09:43.097Z,984
2022-12-29T13:15:43.200Z,984
2022-12-29T13:21:43.079Z,984
2022-12-29T13:27:43.072Z,984
2022-12-29T13:33:43.122Z,984
2022-12-29T13:39:43.078Z,984
2022-12-29T13:45:43.091Z,984
2022-12-29T13:51:43.084Z,984
2022-12-29T13:57:43.075Z,984
2022-12-29T14:03:43.328Z,984
2022-12-29T14:09:43.126Z,985
2022-12-29T14:15:43.157Z,985
2022-12-29T14:21:43.091Z,985
2022-12-29T14:27:43.087Z,985
2022-12-29T14:33:43.059Z,985
2022-12-29T14:39:43.106Z,985
2022-12-29T14:45:43.146Z,985
2022-12-29T14:51:43.065Z,985
2022-12-29T14:57:43.095Z,985
2022-12-29T15:03:43.120Z,985
2022-12-29T15:09:43.092Z,985
2022-12-29T15:15:43.098Z,985
2022-12-29T15:21:43.115Z,985
2022-12-29T15:27:43.087Z,985
2022-12-29T15:33:43.191Z,985
2022-12-29T15:39:43.152Z,985
2022-12-29T15:45:43.263Z,985
2022-12-29T15:51:43.073Z,985
2022-12-29T15:57:43.123Z,985
2022-12-29T16:03:43.186Z,985
2022-12-29T16:09:43.066Z,986
2022-12-29T16:15:43.189Z,986
2022-12-29T16:21:43.113Z,986
2022-12-29T16:27:43.076Z,986
2022-12-29T16:33:43.100Z,986
2022-12-29T16:39:43.085Z,986
2022-12-29T16:45:43.135Z,986
2022-12-29T16:51:43.091Z,986
2022-12-29T16:57:43.060Z,986
2022-12-29T17:03:43.178Z,986
2022-12-29T17:09:43.125Z,986
2022-12-29T17:15:43.163Z,986
2022-12-29T17:21:43.091Z,986
2022-12-29T17:27:43.073Z,986
2022-12-29T17:33:43.072Z,986
2022-12-29T17:39:43.089Z,986
2022-12-29T17:45:43.125Z,986
2022-12-29T17:51:43.068Z,986
2022-12-29T17:57:43.062Z,986
2022-12-29T18:03:43.295Z,986
2022-12-29T18:09:43.067Z,986
2022-12-29T18:15:53.509Z,986
2022-12-29T18:21:43.086Z,986
2022-12-29T18:27:43.068Z,987
2022-12-29T18:33:43.058Z,987
2022-12-29T18:39:43.100Z,987
2022-12-29T18:45:43.065Z,987
2022-12-29T18:51:43.134Z,987
2022-12-29T18:57:43.096Z,987
2022-12-29T19:03:43.111Z,987
2022-12-29T19:09:43.064Z,987
2022-12-29T19:15:43.153Z,987
2022-12-29T19:21:43.092Z,987
2022-12-29T19:27:43.058Z,987
2022-12-29T19:33:43.104Z,987
2022-12-29T19:39:43.081Z,987
2022-12-29T19:45:43.053Z,987
2022-12-29T19:51:43.092Z,987
2022-12-29T19:57:43.093Z,987
2022-12-29T20:03:43.076Z,987
2022-12-29T20:09:43.082Z,988
2022-12-29T20:15:43.076Z,988
2022-12-29T20:21:43.061Z,988
2022-12-29T20:27:43.079Z,988
2022-12-29T20:33:43.081Z,988
2022-12-29T20:39:43.066Z,988
2022-12-29T20:45:53.470Z,988
2022-12-29T20:52:07.479Z,988
2022-12-29T20:58:22.662Z,988
2022-12-29T21:03:43.128Z,988
2022-12-29T21:09:43.072Z,988
2022-12-29T21:15:43.039Z,988
2022-12-29T21:21:43.104Z,988
2022-12-29T21:27:43.053Z,988
2022-12-29T21:33:43.064Z,988
2022-12-29T21:39:43.086Z,988
2022-12-29T21:45:43.156Z,988
2022-12-29T21:51:43.070Z,988
2022-12-29T21:57:43.104Z,988
2022-12-29T22:03:43.209Z,988
2022-12-29T22:09:43.988Z,988
2022-12-29T22:15:43.113Z,988
2022-12-29T22:21:43.076Z,989
2022-12-29T22:27:43.082Z,989
2022-12-29T22:33:43.171Z,989
2022-12-29T22:39:43.069Z,989
2022-12-29T22:45:43.070Z,989
2022-12-29T22:51:43.093Z,989
2022-12-29T22:57:43.036Z,989
2022-12-29T23:03:43.144Z,989
2022-12-29T23:09:43.107Z,989
2022-12-29T23:15:43.167Z,989
2022-12-29T23:21:43.049Z,989
2022-12-29T23:27:43.056Z,989
2022-12-29T23:33:43.065Z,989
2022-12-29T23:39:43.042Z,989
2022-12-29T23:45:47.467Z,989
2022-12-29T23:51:43.059Z,989
2022-12-29T23:57:43.041Z,989
